sensor_id;sensor_type;location;lat;lon;timestamp;P1;durP1;ratioP1;P2;durP2;ratioP2
60468;SDS011;46316;47.582;10.238;2022-09-21T00:03:41;20.45;;;9.48;;
60468;SDS011;46316;47.582;10.238;2022-09-21T00:06:09;16.73;;;7.50;;
60468;SDS011;46316;47.582;10.238;2022-09-21T00:08:36;6.78;;;3.58;;
60468;SDS011;46316;47.582;10.238;2022-09-21T00:11:02;3.72;;;2.85;;
60468;SDS011;46316;47.582;10.238;2022-09-21T00:13:29;2.80;;;2.53;;
60468;SDS011;46316;47.582;10.238;2022-09-21T00:15:57;3.03;;;2.80;;
60468;SDS011;46316;47.582;10.238;2022-09-21T00:18:23;5.85;;;2.85;;
60468;SDS011;46316;47.582;10.238;2022-09-21T00:20:49;4.28;;;3.47;;
60468;SDS011;46316;47.582;10.238;2022-09-21T00:23:16;3.67;;;2.95;;
60468;SDS011;46316;47.582;10.238;2022-09-21T00:25:42;4.22;;;3.00;;
60468;SDS011;46316;47.582;10.238;2022-09-21T00:28:09;4.63;;;3.25;;
60468;SDS011;46316;47.582;10.238;2022-09-21T00:30:34;5.35;;;3.70;;
60468;SDS011;46316;47.582;10.238;2022-09-21T00:33:01;6.75;;;3.92;;
60468;SDS011;46316;47.582;10.238;2022-09-21T00:35:26;5.22;;;3.47;;
60468;SDS011;46316;47.582;10.238;2022-09-21T00:37:52;4.35;;;3.25;;
60468;SDS011;46316;47.582;10.238;2022-09-21T00:40:17;4.15;;;3.08;;
60468;SDS011;46316;47.582;10.238;2022-09-21T00:42:43;5.53;;;3.47;;
60468;SDS011;46316;47.582;10.238;2022-09-21T00:45:10;3.53;;;2.60;;
60468;SDS011;46316;47.582;10.238;2022-09-21T00:47:45;3.90;;;2.95;;
60468;SDS011;46316;47.582;10.238;2022-09-21T00:50:15;2.95;;;2.35;;
60468;SDS011;46316;47.582;10.238;2022-09-21T00:52:45;3.58;;;2.85;;
60468;SDS011;46316;47.582;10.238;2022-09-21T00:55:17;5.70;;;3.67;;
60468;SDS011;46316;47.582;10.238;2022-09-21T00:57:50;6.10;;;3.00;;
60468;SDS011;46316;47.582;10.238;2022-09-21T01:00:18;5.55;;;3.03;;
60468;SDS011;46316;47.582;10.238;2022-09-21T01:02:44;3.05;;;2.55;;
60468;SDS011;46316;47.582;10.238;2022-09-21T01:05:10;4.22;;;2.97;;
60468;SDS011;46316;47.582;10.238;2022-09-21T01:07:37;3.85;;;3.17;;
60468;SDS011;46316;47.582;10.238;2022-09-21T01:10:07;3.45;;;2.97;;
60468;SDS011;46316;47.582;10.238;2022-09-21T01:18:09;5.40;;;3.00;;
60468;SDS011;46316;47.582;10.238;2022-09-21T01:21:06;9.50;;;3.15;;
60468;SDS011;46316;47.582;10.238;2022-09-21T01:31:41;7.07;;;3.35;;
60468;SDS011;46316;47.582;10.238;2022-09-21T01:34:29;3.25;;;2.78;;
60468;SDS011;46316;47.582;10.238;2022-09-21T01:37:05;3.53;;;2.83;;
60468;SDS011;46316;47.582;10.238;2022-09-21T01:39:35;3.47;;;2.90;;
60468;SDS011;46316;47.582;10.238;2022-09-21T01:42:03;5.97;;;2.85;;
60468;SDS011;46316;47.582;10.238;2022-09-21T01:44:31;3.25;;;2.92;;
60468;SDS011;46316;47.582;10.238;2022-09-21T01:47:00;4.90;;;3.30;;
60468;SDS011;46316;47.582;10.238;2022-09-21T01:49:31;5.68;;;3.10;;
60468;SDS011;46316;47.582;10.238;2022-09-21T01:52:07;7.10;;;3.22;;
60468;SDS011;46316;47.582;10.238;2022-09-21T01:54:50;3.28;;;2.92;;
60468;SDS011;46316;47.582;10.238;2022-09-21T01:57:22;4.38;;;3.22;;
60468;SDS011;46316;47.582;10.238;2022-09-21T02:00:03;4.10;;;2.47;;
60468;SDS011;46316;47.582;10.238;2022-09-21T02:05:17;8.95;;;3.28;;
60468;SDS011;46316;47.582;10.238;2022-09-21T02:07:45;3.53;;;3.17;;
60468;SDS011;46316;47.582;10.238;2022-09-21T02:10:14;3.60;;;3.30;;
60468;SDS011;46316;47.582;10.238;2022-09-21T02:12:47;3.83;;;3.00;;
60468;SDS011;46316;47.582;10.238;2022-09-21T02:15:18;4.32;;;3.28;;
60468;SDS011;46316;47.582;10.238;2022-09-21T02:18:01;5.72;;;3.75;;
60468;SDS011;46316;47.582;10.238;2022-09-21T02:20:34;3.22;;;2.63;;
60468;SDS011;46316;47.582;10.238;2022-09-21T02:28:22;8.15;;;3.72;;
60468;SDS011;46316;47.582;10.238;2022-09-21T02:30:59;3.58;;;3.28;;
60468;SDS011;46316;47.582;10.238;2022-09-21T02:33:33;4.97;;;3.63;;
60468;SDS011;46316;47.582;10.238;2022-09-21T02:36:26;4.18;;;3.17;;
60468;SDS011;46316;47.582;10.238;2022-09-21T02:39:09;4.43;;;2.88;;
60468;SDS011;46316;47.582;10.238;2022-09-21T02:44:38;5.40;;;3.38;;
60468;SDS011;46316;47.582;10.238;2022-09-21T02:47:12;5.45;;;3.28;;
60468;SDS011;46316;47.582;10.238;2022-09-21T02:49:46;3.88;;;2.97;;
60468;SDS011;46316;47.582;10.238;2022-09-21T02:52:16;7.47;;;3.00;;
60468;SDS011;46316;47.582;10.238;2022-09-21T02:54:45;3.70;;;3.20;;
60468;SDS011;46316;47.582;10.238;2022-09-21T02:57:17;4.07;;;2.88;;
60468;SDS011;46316;47.582;10.238;2022-09-21T02:59:46;5.63;;;3.20;;
60468;SDS011;46316;47.582;10.238;2022-09-21T03:02:12;3.45;;;2.83;;
60468;SDS011;46316;47.582;10.238;2022-09-21T03:04:42;3.20;;;2.90;;
60468;SDS011;46316;47.582;10.238;2022-09-21T03:07:11;4.45;;;3.15;;
60468;SDS011;46316;47.582;10.238;2022-09-21T03:09:40;3.03;;;2.70;;
60468;SDS011;46316;47.582;10.238;2022-09-21T03:12:06;3.17;;;2.80;;
60468;SDS011;46316;47.582;10.238;2022-09-21T03:14:32;4.78;;;3.30;;
60468;SDS011;46316;47.582;10.238;2022-09-21T03:16:57;4.45;;;3.13;;
60468;SDS011;46316;47.582;10.238;2022-09-21T03:19:24;3.67;;;2.92;;
60468;SDS011;46316;47.582;10.238;2022-09-21T03:21:50;5.43;;;3.00;;
60468;SDS011;46316;47.582;10.238;2022-09-21T03:24:15;4.55;;;3.10;;
60468;SDS011;46316;47.582;10.238;2022-09-21T03:27:01;3.78;;;2.85;;
60468;SDS011;46316;47.582;10.238;2022-09-21T03:29:26;5.00;;;3.33;;
60468;SDS011;46316;47.582;10.238;2022-09-21T03:31:52;5.03;;;2.92;;
60468;SDS011;46316;47.582;10.238;2022-09-21T03:34:19;3.78;;;2.70;;
60468;SDS011;46316;47.582;10.238;2022-09-21T03:36:46;5.97;;;3.00;;
60468;SDS011;46316;47.582;10.238;2022-09-21T03:39:12;3.08;;;2.70;;
60468;SDS011;46316;47.582;10.238;2022-09-21T03:41:38;3.25;;;2.70;;
60468;SDS011;46316;47.582;10.238;2022-09-21T03:44:04;4.50;;;2.83;;
60468;SDS011;46316;47.582;10.238;2022-09-21T03:46:30;3.28;;;2.95;;
60468;SDS011;46316;47.582;10.238;2022-09-21T03:48:59;3.03;;;2.72;;
60468;SDS011;46316;47.582;10.238;2022-09-21T03:51:25;3.90;;;2.63;;
60468;SDS011;46316;47.582;10.238;2022-09-21T03:53:50;3.70;;;2.70;;
60468;SDS011;46316;47.582;10.238;2022-09-21T03:56:16;3.55;;;2.90;;
60468;SDS011;46316;47.582;10.238;2022-09-21T03:58:42;5.70;;;2.67;;
60468;SDS011;46316;47.582;10.238;2022-09-21T04:01:07;3.75;;;2.83;;
60468;SDS011;46316;47.582;10.238;2022-09-21T04:03:33;4.15;;;2.67;;
60468;SDS011;46316;47.582;10.238;2022-09-21T04:05:59;2.72;;;2.25;;
60468;SDS011;46316;47.582;10.238;2022-09-21T04:08:25;3.00;;;2.20;;
60468;SDS011;46316;47.582;10.238;2022-09-21T04:10:50;3.10;;;2.80;;
60468;SDS011;46316;47.582;10.238;2022-09-21T04:13:16;3.80;;;2.38;;
60468;SDS011;46316;47.582;10.238;2022-09-21T04:15:41;5.97;;;2.72;;
60468;SDS011;46316;47.582;10.238;2022-09-21T04:18:07;10.35;;;3.10;;
60468;SDS011;46316;47.582;10.238;2022-09-21T04:20:33;2.67;;;2.45;;
60468;SDS011;46316;47.582;10.238;2022-09-21T04:22:58;3.20;;;2.80;;
60468;SDS011;46316;47.582;10.238;2022-09-21T04:25:24;4.07;;;2.88;;
60468;SDS011;46316;47.582;10.238;2022-09-21T04:27:49;4.03;;;3.25;;
60468;SDS011;46316;47.582;10.238;2022-09-21T04:30:16;3.58;;;3.28;;
60468;SDS011;46316;47.582;10.238;2022-09-21T04:32:41;7.32;;;3.88;;
60468;SDS011;46316;47.582;10.238;2022-09-21T04:35:07;5.82;;;3.63;;
60468;SDS011;46316;47.582;10.238;2022-09-21T04:37:33;5.43;;;3.90;;
60468;SDS011;46316;47.582;10.238;2022-09-21T04:39:58;4.55;;;3.38;;
60468;SDS011;46316;47.582;10.238;2022-09-21T04:42:24;4.57;;;4.13;;
60468;SDS011;46316;47.582;10.238;2022-09-21T04:44:51;6.18;;;4.10;;
60468;SDS011;46316;47.582;10.238;2022-09-21T04:47:17;5.65;;;4.40;;
60468;SDS011;46316;47.582;10.238;2022-09-21T04:49:43;4.57;;;3.33;;
60468;SDS011;46316;47.582;10.238;2022-09-21T04:52:08;4.47;;;3.33;;
60468;SDS011;46316;47.582;10.238;2022-09-21T04:54:34;5.47;;;3.10;;
60468;SDS011;46316;47.582;10.238;2022-09-21T04:57:00;9.77;;;3.70;;
60468;SDS011;46316;47.582;10.238;2022-09-21T04:59:25;4.05;;;3.22;;
60468;SDS011;46316;47.582;10.238;2022-09-21T05:01:51;4.80;;;3.70;;
60468;SDS011;46316;47.582;10.238;2022-09-21T05:04:16;5.35;;;3.95;;
60468;SDS011;46316;47.582;10.238;2022-09-21T05:06:42;7.00;;;3.92;;
60468;SDS011;46316;47.582;10.238;2022-09-21T05:09:07;5.05;;;3.22;;
60468;SDS011;46316;47.582;10.238;2022-09-21T05:11:52;5.25;;;3.20;;
60468;SDS011;46316;47.582;10.238;2022-09-21T05:14:18;3.55;;;3.25;;
60468;SDS011;46316;47.582;10.238;2022-09-21T05:16:43;3.95;;;3.28;;
60468;SDS011;46316;47.582;10.238;2022-09-21T05:19:11;5.90;;;3.03;;
60468;SDS011;46316;47.582;10.238;2022-09-21T05:21:37;3.35;;;2.83;;
60468;SDS011;46316;47.582;10.238;2022-09-21T05:24:02;3.13;;;2.75;;
60468;SDS011;46316;47.582;10.238;2022-09-21T05:26:29;4.85;;;3.40;;
60468;SDS011;46316;47.582;10.238;2022-09-21T05:28:54;7.53;;;3.67;;
60468;SDS011;46316;47.582;10.238;2022-09-21T05:39:23;2.20;;;1.60;;
60468;SDS011;46316;47.582;10.238;2022-09-21T05:41:49;5.57;;;1.92;;
60468;SDS011;46316;47.582;10.238;2022-09-21T05:44:15;2.80;;;1.80;;
60468;SDS011;46316;47.582;10.238;2022-09-21T05:46:56;2.65;;;2.40;;
60468;SDS011;46316;47.582;10.238;2022-09-21T05:49:44;2.00;;;1.80;;
60468;SDS011;46316;47.582;10.238;2022-09-21T05:52:25;3.13;;;2.03;;
60468;SDS011;46316;47.582;10.238;2022-09-21T05:55:25;4.22;;;1.98;;
60468;SDS011;46316;47.582;10.238;2022-09-21T06:01:03;3.45;;;2.60;;
60468;SDS011;46316;47.582;10.238;2022-09-21T06:03:41;4.57;;;2.60;;
60468;SDS011;46316;47.582;10.238;2022-09-21T06:06:08;2.15;;;1.95;;
60468;SDS011;46316;47.582;10.238;2022-09-21T06:08:34;16.58;;;8.85;;
60468;SDS011;46316;47.582;10.238;2022-09-21T06:11:00;6.03;;;4.05;;
60468;SDS011;46316;47.582;10.238;2022-09-21T06:13:25;2.67;;;2.33;;
60468;SDS011;46316;47.582;10.238;2022-09-21T06:15:51;7.07;;;2.03;;
60468;SDS011;46316;47.582;10.238;2022-09-21T06:18:17;2.10;;;1.90;;
60468;SDS011;46316;47.582;10.238;2022-09-21T06:20:43;2.35;;;2.15;;
60468;SDS011;46316;47.582;10.238;2022-09-21T06:23:09;4.88;;;2.40;;
60468;SDS011;46316;47.582;10.238;2022-09-21T06:25:36;3.15;;;2.20;;
60468;SDS011;46316;47.582;10.238;2022-09-21T06:28:06;6.18;;;2.58;;
60468;SDS011;46316;47.582;10.238;2022-09-21T06:30:38;2.58;;;2.38;;
60468;SDS011;46316;47.582;10.238;2022-09-21T06:33:06;2.63;;;2.33;;
60468;SDS011;46316;47.582;10.238;2022-09-21T06:37:58;2.55;;;2.17;;
60468;SDS011;46316;47.582;10.238;2022-09-21T06:40:26;4.60;;;2.00;;
60468;SDS011;46316;47.582;10.238;2022-09-21T06:42:59;3.17;;;2.08;;
60468;SDS011;46316;47.582;10.238;2022-09-21T06:45:26;2.78;;;2.00;;
60468;SDS011;46316;47.582;10.238;2022-09-21T06:47:53;2.58;;;1.58;;
60468;SDS011;46316;47.582;10.238;2022-09-21T06:50:18;1.90;;;1.55;;
60468;SDS011;46316;47.582;10.238;2022-09-21T06:52:44;3.10;;;1.63;;
60468;SDS011;46316;47.582;10.238;2022-09-21T06:55:11;1.55;;;1.35;;
60468;SDS011;46316;47.582;10.238;2022-09-21T06:57:36;1.80;;;1.60;;
60468;SDS011;46316;47.582;10.238;2022-09-21T07:00:05;1.67;;;1.42;;
60468;SDS011;46316;47.582;10.238;2022-09-21T07:02:33;1.85;;;1.48;;
60468;SDS011;46316;47.582;10.238;2022-09-21T07:04:59;1.67;;;1.10;;
60468;SDS011;46316;47.582;10.238;2022-09-21T07:07:25;1.95;;;1.40;;
60468;SDS011;46316;47.582;10.238;2022-09-21T07:09:55;2.95;;;1.52;;
60468;SDS011;46316;47.582;10.238;2022-09-21T07:12:23;1.73;;;1.63;;
60468;SDS011;46316;47.582;10.238;2022-09-21T07:14:50;2.00;;;1.35;;
60468;SDS011;46316;47.582;10.238;2022-09-21T07:17:15;3.92;;;1.83;;
60468;SDS011;46316;47.582;10.238;2022-09-21T07:19:41;3.15;;;1.52;;
60468;SDS011;46316;47.582;10.238;2022-09-21T07:22:07;1.83;;;1.30;;
60468;SDS011;46316;47.582;10.238;2022-09-21T07:24:32;2.65;;;1.52;;
60468;SDS011;46316;47.582;10.238;2022-09-21T07:26:58;1.75;;;1.48;;
60468;SDS011;46316;47.582;10.238;2022-09-21T07:29:23;3.88;;;1.73;;
60468;SDS011;46316;47.582;10.238;2022-09-21T07:31:49;4.68;;;2.00;;
60468;SDS011;46316;47.582;10.238;2022-09-21T07:34:15;2.28;;;1.50;;
60468;SDS011;46316;47.582;10.238;2022-09-21T07:36:41;3.33;;;1.67;;
60468;SDS011;46316;47.582;10.238;2022-09-21T07:39:07;3.47;;;1.75;;
60468;SDS011;46316;47.582;10.238;2022-09-21T07:41:33;3.53;;;1.88;;
60468;SDS011;46316;47.582;10.238;2022-09-21T07:43:59;3.83;;;1.65;;
60468;SDS011;46316;47.582;10.238;2022-09-21T07:46:25;1.85;;;1.40;;
60468;SDS011;46316;47.582;10.238;2022-09-21T07:48:54;2.88;;;1.55;;
60468;SDS011;46316;47.582;10.238;2022-09-21T07:53:46;2.05;;;1.60;;
60468;SDS011;46316;47.582;10.238;2022-09-21T07:56:13;4.05;;;1.80;;
60468;SDS011;46316;47.582;10.238;2022-09-21T07:58:40;3.42;;;1.70;;
60468;SDS011;46316;47.582;10.238;2022-09-21T08:01:25;1.60;;;1.50;;
60468;SDS011;46316;47.582;10.238;2022-09-21T08:03:52;2.70;;;1.67;;
60468;SDS011;46316;47.582;10.238;2022-09-21T08:06:19;3.40;;;1.90;;
60468;SDS011;46316;47.582;10.238;2022-09-21T08:08:46;2.88;;;1.65;;
60468;SDS011;46316;47.582;10.238;2022-09-21T08:11:12;2.10;;;1.60;;
60468;SDS011;46316;47.582;10.238;2022-09-21T08:13:38;1.65;;;1.42;;
60468;SDS011;46316;47.582;10.238;2022-09-21T08:16:04;4.00;;;1.73;;
60468;SDS011;46316;47.582;10.238;2022-09-21T08:18:34;2.45;;;1.80;;
60468;SDS011;46316;47.582;10.238;2022-09-21T08:21:05;2.58;;;1.85;;
60468;SDS011;46316;47.582;10.238;2022-09-21T08:23:34;3.95;;;1.75;;
60468;SDS011;46316;47.582;10.238;2022-09-21T08:26:10;5.72;;;1.40;;
60468;SDS011;46316;47.582;10.238;2022-09-21T08:28:42;3.97;;;1.80;;
60468;SDS011;46316;47.582;10.238;2022-09-21T08:31:15;4.53;;;2.03;;
60468;SDS011;46316;47.582;10.238;2022-09-21T08:33:43;3.50;;;2.03;;
60468;SDS011;46316;47.582;10.238;2022-09-21T08:36:09;3.10;;;1.60;;
60468;SDS011;46316;47.582;10.238;2022-09-21T08:38:39;2.67;;;1.40;;
60468;SDS011;46316;47.582;10.238;2022-09-21T08:47:24;2.22;;;1.52;;
60468;SDS011;46316;47.582;10.238;2022-09-21T08:49:59;1.80;;;1.40;;
60468;SDS011;46316;47.582;10.238;2022-09-21T08:52:27;3.33;;;1.40;;
60468;SDS011;46316;47.582;10.238;2022-09-21T08:55:15;2.90;;;1.50;;
60468;SDS011;46316;47.582;10.238;2022-09-21T08:57:43;2.20;;;1.50;;
60468;SDS011;46316;47.582;10.238;2022-09-21T09:00:13;3.70;;;1.50;;
60468;SDS011;46316;47.582;10.238;2022-09-21T09:05:40;2.25;;;1.60;;
60468;SDS011;46316;47.582;10.238;2022-09-21T09:08:27;1.85;;;1.30;;
60468;SDS011;46316;47.582;10.238;2022-09-21T09:13:58;3.45;;;1.77;;
60468;SDS011;46316;47.582;10.238;2022-09-21T09:16:51;2.92;;;1.30;;
60468;SDS011;46316;47.582;10.238;2022-09-21T09:19:43;2.70;;;1.42;;
60468;SDS011;46316;47.582;10.238;2022-09-21T09:22:11;2.92;;;1.40;;
60468;SDS011;46316;47.582;10.238;2022-09-21T09:24:47;2.22;;;1.13;;
60468;SDS011;46316;47.582;10.238;2022-09-21T09:27:49;2.25;;;0.80;;
60468;SDS011;46316;47.582;10.238;2022-09-21T09:32:55;3.28;;;1.20;;
60468;SDS011;46316;47.582;10.238;2022-09-21T09:35:44;2.05;;;1.02;;
60468;SDS011;46316;47.582;10.238;2022-09-21T09:52:23;3.03;;;1.30;;
60468;SDS011;46316;47.582;10.238;2022-09-21T09:54:49;2.35;;;1.05;;
60468;SDS011;46316;47.582;10.238;2022-09-21T09:57:15;1.23;;;1.00;;
60468;SDS011;46316;47.582;10.238;2022-09-21T09:59:52;4.68;;;1.90;;
60468;SDS011;46316;47.582;10.238;2022-09-21T10:04:57;6.40;;;1.83;;
60468;SDS011;46316;47.582;10.238;2022-09-21T10:12:46;3.90;;;1.10;;
60468;SDS011;46316;47.582;10.238;2022-09-21T10:15:12;3.50;;;1.10;;
60468;SDS011;46316;47.582;10.238;2022-09-21T10:17:37;3.72;;;1.17;;
60468;SDS011;46316;47.582;10.238;2022-09-21T10:20:04;1.92;;;1.48;;
60468;SDS011;46316;47.582;10.238;2022-09-21T10:22:32;1.77;;;1.00;;
60468;SDS011;46316;47.582;10.238;2022-09-21T10:24:57;2.63;;;1.25;;
60468;SDS011;46316;47.582;10.238;2022-09-21T10:27:28;2.53;;;1.60;;
60468;SDS011;46316;47.582;10.238;2022-09-21T10:32:25;5.25;;;1.20;;
60468;SDS011;46316;47.582;10.238;2022-09-21T10:37:31;1.45;;;0.90;;
60468;SDS011;46316;47.582;10.238;2022-09-21T10:39:59;2.00;;;0.80;;
60468;SDS011;46316;47.582;10.238;2022-09-21T10:42:25;2.60;;;1.00;;
60468;SDS011;46316;47.582;10.238;2022-09-21T10:45:05;1.88;;;1.15;;
60468;SDS011;46316;47.582;10.238;2022-09-21T10:47:38;1.20;;;1.10;;
60468;SDS011;46316;47.582;10.238;2022-09-21T10:50:19;2.35;;;1.00;;
60468;SDS011;46316;47.582;10.238;2022-09-21T10:52:46;1.97;;;1.40;;
60468;SDS011;46316;47.582;10.238;2022-09-21T10:55:16;3.97;;;1.23;;
60468;SDS011;46316;47.582;10.238;2022-09-21T10:57:43;2.47;;;1.10;;
60468;SDS011;46316;47.582;10.238;2022-09-21T11:02:47;2.50;;;0.85;;
60468;SDS011;46316;47.582;10.238;2022-09-21T11:05:15;2.92;;;1.05;;
60468;SDS011;46316;47.582;10.238;2022-09-21T11:08:10;1.77;;;1.10;;
60468;SDS011;46316;47.582;10.238;2022-09-21T11:13:38;2.63;;;1.17;;
60468;SDS011;46316;47.582;10.238;2022-09-21T11:16:34;1.27;;;0.70;;
60468;SDS011;46316;47.582;10.238;2022-09-21T11:21:41;1.17;;;0.90;;
60468;SDS011;46316;47.582;10.238;2022-09-21T11:24:25;2.22;;;0.80;;
60468;SDS011;46316;47.582;10.238;2022-09-21T11:29:48;2.03;;;0.90;;
60468;SDS011;46316;47.582;10.238;2022-09-21T11:54:49;2.47;;;0.90;;
60468;SDS011;46316;47.582;10.238;2022-09-21T12:11:48;1.92;;;1.00;;
60468;SDS011;46316;47.582;10.238;2022-09-21T12:14:32;1.50;;;1.15;;
60468;SDS011;46316;47.582;10.238;2022-09-21T12:23:06;3.33;;;1.20;;
60468;SDS011;46316;47.582;10.238;2022-09-21T12:25:39;1.73;;;1.15;;
60468;SDS011;46316;47.582;10.238;2022-09-21T12:28:13;2.60;;;0.90;;
60468;SDS011;46316;47.582;10.238;2022-09-21T12:30:43;1.27;;;0.90;;
60468;SDS011;46316;47.582;10.238;2022-09-21T12:36:17;1.27;;;0.90;;
60468;SDS011;46316;47.582;10.238;2022-09-21T12:38:50;2.13;;;1.00;;
60468;SDS011;46316;47.582;10.238;2022-09-21T12:47:16;2.08;;;0.98;;
60468;SDS011;46316;47.582;10.238;2022-09-21T12:49:48;2.17;;;0.63;;
60468;SDS011;46316;47.582;10.238;2022-09-21T12:52:21;1.30;;;0.90;;
60468;SDS011;46316;47.582;10.238;2022-09-21T12:54:55;1.55;;;1.10;;
60468;SDS011;46316;47.582;10.238;2022-09-21T12:58:33;1.45;;;0.90;;
60468;SDS011;46316;47.582;10.238;2022-09-21T13:03:18;3.08;;;1.17;;
60468;SDS011;46316;47.582;10.238;2022-09-21T13:06:04;4.85;;;1.33;;
60468;SDS011;46316;47.582;10.238;2022-09-21T13:08:40;4.13;;;1.00;;
60468;SDS011;46316;47.582;10.238;2022-09-21T13:11:08;0.73;;;0.70;;
60468;SDS011;46316;47.582;10.238;2022-09-21T13:16:27;1.55;;;0.90;;
60468;SDS011;46316;47.582;10.238;2022-09-21T13:19:02;1.35;;;0.75;;
60468;SDS011;46316;47.582;10.238;2022-09-21T13:21:40;2.45;;;1.00;;
60468;SDS011;46316;47.582;10.238;2022-09-21T13:24:21;1.90;;;0.90;;
60468;SDS011;46316;47.582;10.238;2022-09-21T13:26:57;2.25;;;1.00;;
60468;SDS011;46316;47.582;10.238;2022-09-21T13:29:32;0.90;;;0.80;;
60468;SDS011;46316;47.582;10.238;2022-09-21T13:32:06;0.77;;;0.77;;
60468;SDS011;46316;47.582;10.238;2022-09-21T13:34:46;2.67;;;0.80;;
60468;SDS011;46316;47.582;10.238;2022-09-21T13:44:59;1.40;;;0.95;;
60468;SDS011;46316;47.582;10.238;2022-09-21T13:47:29;2.33;;;1.10;;
60468;SDS011;46316;47.582;10.238;2022-09-21T13:50:00;3.50;;;1.08;;
60468;SDS011;46316;47.582;10.238;2022-09-21T13:55:37;4.05;;;1.00;;
60468;SDS011;46316;47.582;10.238;2022-09-21T13:58:15;1.20;;;1.00;;
60468;SDS011;46316;47.582;10.238;2022-09-21T14:03:24;2.97;;;0.90;;
60468;SDS011;46316;47.582;10.238;2022-09-21T14:08:53;3.80;;;0.95;;
60468;SDS011;46316;47.582;10.238;2022-09-21T14:24:36;2.53;;;0.85;;
60468;SDS011;46316;47.582;10.238;2022-09-21T14:27:27;1.10;;;0.80;;
60468;SDS011;46316;47.582;10.238;2022-09-21T14:30:04;3.63;;;1.08;;
60468;SDS011;46316;47.582;10.238;2022-09-21T14:32:44;2.47;;;1.00;;
60468;SDS011;46316;47.582;10.238;2022-09-21T14:35:36;1.55;;;0.95;;
60468;SDS011;46316;47.582;10.238;2022-09-21T14:38:11;1.33;;;0.70;;
60468;SDS011;46316;47.582;10.238;2022-09-21T14:40:57;1.85;;;1.00;;
60468;SDS011;46316;47.582;10.238;2022-09-21T14:43:28;1.52;;;1.00;;
60468;SDS011;46316;47.582;10.238;2022-09-21T14:51:23;1.23;;;0.77;;
60468;SDS011;46316;47.582;10.238;2022-09-21T14:56:53;1.05;;;0.63;;
60468;SDS011;46316;47.582;10.238;2022-09-21T15:07:30;1.10;;;0.73;;
60468;SDS011;46316;47.582;10.238;2022-09-21T15:16:33;1.45;;;0.57;;
60468;SDS011;46316;47.582;10.238;2022-09-21T15:19:11;0.88;;;0.70;;
60468;SDS011;46316;47.582;10.238;2022-09-21T15:21:47;1.15;;;0.60;;
60468;SDS011;46316;47.582;10.238;2022-09-21T15:24:20;0.90;;;0.70;;
60468;SDS011;46316;47.582;10.238;2022-09-21T15:27:08;1.17;;;0.80;;
60468;SDS011;46316;47.582;10.238;2022-09-21T15:29:38;4.38;;;1.15;;
60468;SDS011;46316;47.582;10.238;2022-09-21T15:35:00;1.15;;;0.77;;
60468;SDS011;46316;47.582;10.238;2022-09-21T15:37:28;2.33;;;0.80;;
60468;SDS011;46316;47.582;10.238;2022-09-21T15:40:00;2.65;;;0.90;;
60468;SDS011;46316;47.582;10.238;2022-09-21T15:42:26;1.08;;;0.60;;
60468;SDS011;46316;47.582;10.238;2022-09-21T15:45:01;2.28;;;0.90;;
60468;SDS011;46316;47.582;10.238;2022-09-21T15:47:41;2.55;;;0.70;;
60468;SDS011;46316;47.582;10.238;2022-09-21T15:50:15;2.10;;;0.70;;
60468;SDS011;46316;47.582;10.238;2022-09-21T15:52:47;3.70;;;0.90;;
60468;SDS011;46316;47.582;10.238;2022-09-21T15:55:17;1.95;;;1.15;;
60468;SDS011;46316;47.582;10.238;2022-09-21T15:57:45;2.92;;;0.80;;
60468;SDS011;46316;47.582;10.238;2022-09-21T16:02:39;8.52;;;4.55;;
60468;SDS011;46316;47.582;10.238;2022-09-21T16:05:07;1.90;;;1.50;;
60468;SDS011;46316;47.582;10.238;2022-09-21T16:07:40;1.38;;;1.20;;
60468;SDS011;46316;47.582;10.238;2022-09-21T16:12:59;2.85;;;2.50;;
60468;SDS011;46316;47.582;10.238;2022-09-21T16:16:04;4.15;;;0.88;;
60468;SDS011;46316;47.582;10.238;2022-09-21T16:18:41;1.13;;;0.95;;
60468;SDS011;46316;47.582;10.238;2022-09-21T16:21:27;3.63;;;2.17;;
60468;SDS011;46316;47.582;10.238;2022-09-21T16:24:08;2.58;;;1.98;;
60468;SDS011;46316;47.582;10.238;2022-09-21T16:26:41;27.20;;;18.38;;
60468;SDS011;46316;47.582;10.238;2022-09-21T16:29:38;8.88;;;4.18;;
60468;SDS011;46316;47.582;10.238;2022-09-21T16:34:41;18.13;;;12.00;;
60468;SDS011;46316;47.582;10.238;2022-09-21T16:39:55;16.23;;;12.05;;
60468;SDS011;46316;47.582;10.238;2022-09-21T16:42:23;14.00;;;9.48;;
60468;SDS011;46316;47.582;10.238;2022-09-21T16:44:51;15.30;;;9.48;;
60468;SDS011;46316;47.582;10.238;2022-09-21T16:47:22;11.35;;;6.88;;
60468;SDS011;46316;47.582;10.238;2022-09-21T16:49:50;10.93;;;7.13;;
60468;SDS011;46316;47.582;10.238;2022-09-21T16:52:19;4.40;;;3.20;;
60468;SDS011;46316;47.582;10.238;2022-09-21T16:54:45;16.92;;;9.38;;
60468;SDS011;46316;47.582;10.238;2022-09-21T16:57:12;14.20;;;5.68;;
60468;SDS011;46316;47.582;10.238;2022-09-21T16:59:38;11.85;;;7.30;;
60468;SDS011;46316;47.582;10.238;2022-09-21T17:02:04;13.98;;;7.78;;
60468;SDS011;46316;47.582;10.238;2022-09-21T17:04:32;11.25;;;6.72;;
60468;SDS011;46316;47.582;10.238;2022-09-21T17:06:58;8.77;;;5.40;;
60468;SDS011;46316;47.582;10.238;2022-09-21T17:11:56;7.78;;;7.05;;
60468;SDS011;46316;47.582;10.238;2022-09-21T17:14:26;4.95;;;3.67;;
60468;SDS011;46316;47.582;10.238;2022-09-21T17:16:56;3.28;;;2.97;;
60468;SDS011;46316;47.582;10.238;2022-09-21T17:19:23;2.75;;;2.05;;
60468;SDS011;46316;47.582;10.238;2022-09-21T17:21:49;2.25;;;1.92;;
60468;SDS011;46316;47.582;10.238;2022-09-21T17:24:15;2.47;;;1.60;;
60468;SDS011;46316;47.582;10.238;2022-09-21T17:26:41;3.60;;;1.58;;
60468;SDS011;46316;47.582;10.238;2022-09-21T17:29:13;5.05;;;2.20;;
60468;SDS011;46316;47.582;10.238;2022-09-21T17:31:46;3.38;;;1.90;;
60468;SDS011;46316;47.582;10.238;2022-09-21T17:34:15;3.42;;;1.80;;
60468;SDS011;46316;47.582;10.238;2022-09-21T17:36:41;8.25;;;4.75;;
60468;SDS011;46316;47.582;10.238;2022-09-21T17:39:07;2.15;;;1.40;;
60468;SDS011;46316;47.582;10.238;2022-09-21T17:41:45;3.17;;;1.60;;
60468;SDS011;46316;47.582;10.238;2022-09-21T17:44:16;2.75;;;1.90;;
60468;SDS011;46316;47.582;10.238;2022-09-21T17:49:46;3.05;;;1.40;;
60468;SDS011;46316;47.582;10.238;2022-09-21T17:52:13;1.85;;;1.48;;
60468;SDS011;46316;47.582;10.238;2022-09-21T17:54:59;3.97;;;1.60;;
60468;SDS011;46316;47.582;10.238;2022-09-21T17:57:28;3.42;;;1.17;;
60468;SDS011;46316;47.582;10.238;2022-09-21T18:00:10;3.25;;;1.67;;
60468;SDS011;46316;47.582;10.238;2022-09-21T18:02:36;2.00;;;1.10;;
60468;SDS011;46316;47.582;10.238;2022-09-21T18:05:05;2.90;;;1.60;;
60468;SDS011;46316;47.582;10.238;2022-09-21T18:07:54;2.15;;;1.70;;
60468;SDS011;46316;47.582;10.238;2022-09-21T18:10:21;9.52;;;6.28;;
60468;SDS011;46316;47.582;10.238;2022-09-21T18:12:57;10.77;;;6.13;;
60468;SDS011;46316;47.582;10.238;2022-09-21T18:18:31;7.85;;;3.55;;
60468;SDS011;46316;47.582;10.238;2022-09-21T18:21:10;4.90;;;2.25;;
60468;SDS011;46316;47.582;10.238;2022-09-21T18:26:35;9.30;;;7.38;;
60468;SDS011;46316;47.582;10.238;2022-09-21T18:29:03;12.25;;;6.75;;
60468;SDS011;46316;47.582;10.238;2022-09-21T18:37:05;6.47;;;5.13;;
60468;SDS011;46316;47.582;10.238;2022-09-21T18:42:45;3.75;;;2.58;;
60468;SDS011;46316;47.582;10.238;2022-09-21T18:50:49;15.18;;;6.05;;
60468;SDS011;46316;47.582;10.238;2022-09-21T18:53:40;15.38;;;6.07;;
60468;SDS011;46316;47.582;10.238;2022-09-21T18:56:20;30.35;;;10.48;;
60468;SDS011;46316;47.582;10.238;2022-09-21T18:58:57;29.88;;;10.95;;
60468;SDS011;46316;47.582;10.238;2022-09-21T19:01:23;45.58;;;18.00;;